Time;durP1;ratioP1;P1;durP2;ratioP2;P2;SDS_P1;SDS_P2;PMS_P1;PMS_P2;Temp;Humidity;BMP_temperature;BMP_pressure;BME280_temperature;BME280_humidity;BME280_pressure;Samples;Min_cycle;Max_cycle;Signal;HPM_P1;HPM_P2
2024/01/03 00:00:08;;;;;;;0.10;0.10;;;;;;;8.42;89.20;95226.66;5004480;28;20667;-74
2024/01/03 00:02:36;;;;;;;0.38;0.38;;;;;;;8.48;88.87;95232.06;4992614;28;20108;-72
2024/01/03 00:05:05;;;;;;;0.20;0.20;;;;;;;8.49;89.05;95223.03;4999458;28;20382;-73
2024/01/03 00:07:33;;;;;;;0.88;0.88;;;;;;;8.54;88.60;95220.47;4993872;28;20049;-74
2024/01/03 00:10:02;;;;;;;0.80;0.80;;;;;;;8.55;87.53;95209.59;5001440;28;20042;-72
2024/01/03 00:12:29;;;;;;;0.75;0.75;;;;;;;8.57;87.00;95217.31;4972550;28;20494;-73
2024/01/03 00:14:56;;;;;;;0.77;0.77;;;;;;;8.60;86.61;95201.72;4993625;28;20054;-73
2024/01/03 00:17:24;;;;;;;0.98;0.98;;;;;;;8.63;86.67;95214.50;4996082;28;20664;-72
2024/01/03 00:19:56;;;;;;;0.82;0.82;;;;;;;8.58;86.81;95209.13;4995637;28;20081;-73
2024/01/03 00:22:23;;;;;;;0.20;0.20;;;;;;;8.62;86.43;95212.06;4987682;28;20467;-73
2024/01/03 00:25:02;;;;;;;0.68;0.68;;;;;;;8.66;86.03;95222.00;4993370;28;20125;-72
2024/01/03 00:27:30;;;;;;;0.80;0.80;;;;;;;8.70;85.71;95206.38;4997984;28;20061;-72
2024/01/03 00:30:04;;;;;;;1.00;1.00;;;;;;;8.67;85.98;95209.50;4988481;28;20056;-74
2024/01/03 00:32:33;;;;;;;0.85;0.85;;;;;;;8.67;85.82;95210.31;4993282;28;20050;-72
2024/01/03 00:35:04;;;;;;;;;;;;;;;8.69;85.70;95204.75;4993301;28;20130;-72
2024/01/03 00:37:34;;;;;;;0.75;0.75;;;;;;;8.70;85.53;95201.06;4987780;28;20009;-72
2024/01/03 00:40:06;;;;;;;0.70;0.70;;;;;;;8.67;85.67;95214.84;4965258;28;20117;-75
2024/01/03 00:42:34;;;;;;;0.80;0.80;;;;;;;8.66;85.94;95198.06;4988790;28;20046;-73
2024/01/03 00:45:02;;;;;;;0.65;0.65;;;;;;;8.69;85.36;95202.09;4987651;28;20035;-73
2024/01/03 00:47:30;;;;;;;0.68;0.68;;;;;;;8.67;85.04;95214.84;4989208;28;20054;-73
2024/01/03 00:49:58;;;;;;;0.30;0.30;;;;;;;8.74;84.79;95212.81;4969740;28;20405;-73
2024/01/03 00:52:25;;;;;;;0.60;0.60;;;;;;;8.76;84.48;95200.09;4970111;28;20054;-73
2024/01/03 00:54:53;;;;;;;0.57;0.57;;;;;;;8.81;83.57;95221.44;4969182;28;20047;-73
2024/01/03 00:57:23;;;;;;;0.98;0.98;;;;;;;8.79;83.53;95220.88;4986159;28;20125;-72
2024/01/03 00:59:51;;;;;;;0.77;0.77;;;;;;;8.79;83.25;95215.56;4991029;28;20042;-73
2024/01/03 01:02:18;;;;;;;0.80;0.80;;;;;;;8.80;83.50;95211.88;4987682;28;20042;-73
2024/01/03 01:04:46;;;;;;;0.80;0.80;;;;;;;8.80;83.24;95215.31;4971347;28;20056;-72
2024/01/03 01:07:13;;;;;;;0.90;0.90;;;;;;;8.83;82.94;95216.66;4972566;28;20074;-72
2024/01/03 01:09:42;;;;;;;0.68;0.68;;;;;;;8.80;83.05;95211.88;4990372;28;20030;-72
2024/01/03 01:12:10;;;;;;;0.73;0.73;;;;;;;8.79;82.83;95203.06;4984659;28;20125;-72
2024/01/03 01:14:39;;;;;;;0.70;0.70;;;;;;;8.81;82.73;95216.13;4988161;28;20046;-72
2024/01/03 01:17:06;;;;;;;0.20;0.20;;;;;;;8.82;82.71;95218.53;4996007;28;20586;-72
2024/01/03 01:19:34;;;;;;;0.63;0.63;;;;;;;8.80;82.82;95222.50;4972863;28;20055;-74
2024/01/03 01:22:02;;;;;;;0.10;0.10;;;;;;;8.84;82.15;95210.31;4970432;28;20405;-72
2024/01/03 01:24:29;;;;;;;0.93;0.93;;;;;;;8.84;82.43;95231.59;4989539;28;20054;-74
2024/01/03 01:26:57;;;;;;;0.80;0.80;;;;;;;8.80;82.31;95244.59;4986563;28;20157;-73
2024/01/03 01:29:27;;;;;;;0.90;0.90;;;;;;;8.83;81.97;95206.84;4988284;28;20054;-73
2024/01/03 01:31:56;;;;;;;0.73;0.73;;;;;;;8.84;81.62;95226.28;4988790;28;20077;-73
2024/01/03 01:34:24;;;;;;;0.85;0.85;;;;;;;8.90;81.03;95229.81;4970410;28;20047;-73
2024/01/03 01:36:51;;;;;;;0.75;0.75;;;;;;;8.90;81.17;95241.28;4973009;28;20061;-75
2024/01/03 01:39:19;;;;;;;0.77;0.77;;;;;;;8.87;81.62;95224.97;4985659;28;20133;-73
2024/01/03 01:41:46;;;;;;;0.85;0.85;;;;;;;8.82;81.92;95223.84;4989086;28;20042;-74
2024/01/03 01:44:14;;;;;;;0.82;0.82;;;;;;;8.79;82.39;95236.84;4989214;28;20137;-72
2024/01/03 01:46:43;;;;;;;0.80;0.80;;;;;;;8.70;82.67;95228.47;4988675;28;20069;-73
2024/01/03 01:49:12;;;;;;;0.10;0.10;;;;;;;8.71;83.17;95240.72;4990595;28;20461;-73
2024/01/03 01:51:40;;;;;;;0.15;0.15;;;;;;;8.68;82.99;95240.38;4989574;28;20390;-72
2024/01/03 01:54:09;;;;;;;0.93;0.93;;;;;;;8.68;82.94;95254.47;4969019;28;20047;-73
2024/01/03 01:56:36;;;;;;;0.82;0.82;;;;;;;8.66;83.04;95253.09;4988975;28;20121;-73
2024/01/03 01:59:06;;;;;;;0.60;0.60;;;;;;;8.67;82.87;95254.72;4971625;28;20137;-72
2024/01/03 02:01:34;;;;;;;0.77;0.77;;;;;;;8.67;82.49;95252.88;4969973;28;20077;-73
2024/01/03 02:04:04;;;;;;;0.57;0.57;;;;;;;8.70;82.13;95256.91;4971145;28;20092;-73
2024/01/03 02:06:35;;;;;;;0.90;0.90;;;;;;;8.70;82.41;95248.94;4966280;28;20527;-73
2024/01/03 02:09:02;;;;;;;0.60;0.60;;;;;;;8.74;81.36;95255.34;4990081;28;20104;-73
2024/01/03 02:11:30;;;;;;;0.52;0.52;;;;;;;8.72;81.34;95249.50;4987290;28;20046;-73
2024/01/03 02:13:58;;;;;;;0.85;0.85;;;;;;;8.79;80.24;95274.06;4970687;28;20057;-75
2024/01/03 02:16:25;;;;;;;1.00;1.00;;;;;;;8.77;79.92;95263.69;4985989;28;20481;-73
2024/01/03 02:18:53;;;;;;;0.80;0.80;;;;;;;8.76;79.73;95279.88;4987683;28;20046;-73
2024/01/03 02:21:22;;;;;;;0.30;0.30;;;;;;;8.79;79.42;95272.22;4987838;28;20409;-73
2024/01/03 02:23:49;;;;;;;0.90;0.90;;;;;;;8.75;79.41;95271.09;4972916;28;20054;-73
2024/01/03 02:26:18;;;;;;;0.82;0.82;;;;;;;8.73;78.68;95262.53;4990740;28;20077;-72
2024/01/03 02:28:56;;;;;;;0.90;0.90;;;;;;;8.72;77.96;95276.09;4988409;28;20086;-74
2024/01/03 02:31:24;;;;;;;0.80;0.80;;;;;;;8.66;78.00;95269.88;4988075;28;20042;-74
2024/01/03 02:33:51;;;;;;;0.90;0.90;;;;;;;8.66;78.46;95274.38;4994200;28;20073;-74
2024/01/03 02:36:19;;;;;;;0.93;0.93;;;;;;;8.62;78.87;95251.97;4992267;28;20073;-74
2024/01/03 02:38:52;;;;;;;1.00;1.00;;;;;;;8.63;79.18;95274.84;4993486;28;20046;-74
2024/01/03 02:41:19;;;;;;;0.73;0.73;;;;;;;8.52;80.61;95286.34;4991617;28;20153;-73
2024/01/03 02:43:47;;;;;;;0.68;0.68;;;;;;;8.42;81.75;95279.00;4993603;28;20042;-74
2024/01/03 02:46:18;;;;;;;0.82;0.82;;;;;;;8.36;82.66;95270.13;4992174;28;20054;-75
2024/01/03 02:48:45;;;;;;;0.73;0.73;;;;;;;8.27;83.67;95281.34;4994648;28;20054;-73
2024/01/03 02:51:18;;;;;;;0.70;0.70;;;;;;;8.23;83.93;95302.28;4992393;28;20053;-74
2024/01/03 02:53:46;;;;;;;0.70;0.70;;;;;;;8.32;82.93;95287.59;4992645;28;20060;-74
2024/01/03 02:56:15;;;;;;;0.85;0.85;;;;;;;8.32;83.01;95284.94;4994722;28;20049;-74
2024/01/03 02:58:42;;;;;;;0.75;0.75;;;;;;;8.34;82.72;95287.34;4994479;28;20073;-73
2024/01/03 03:01:10;;;;;;;0.90;0.90;;;;;;;8.33;81.80;95286.56;4991048;28;20060;-74
2024/01/03 03:03:38;;;;;;;0.95;0.95;;;;;;;8.34;81.58;95296.13;4992385;28;20121;-73
2024/01/03 03:06:06;;;;;;;0.73;0.73;;;;;;;8.35;80.73;95279.16;4991766;28;20046;-73
2024/01/03 03:08:35;;;;;;;0.80;0.80;;;;;;;8.33;81.00;95291.06;4993665;28;20061;-72
2024/01/03 03:11:04;;;;;;;0.88;0.88;;;;;;;8.24;82.22;95297.75;4991355;28;20061;-73
2024/01/03 03:13:33;;;;;;;0.90;0.90;;;;;;;8.15;83.36;95289.38;4990554;28;20623;-74
2024/01/03 03:16:01;;;;;;;0.75;0.75;;;;;;;8.05;83.91;95289.16;4993513;28;20039;-73
2024/01/03 03:18:29;;;;;;;0.55;0.55;;;;;;;7.98;84.38;95299.94;4990470;28;20068;-73
2024/01/03 03:20:57;;;;;;;0.82;0.82;;;;;;;7.97;84.39;95306.28;4992586;28;20047;-75
2024/01/03 03:23:25;;;;;;;0.63;0.63;;;;;;;7.94;84.62;95292.66;4993067;28;20047;-74
2024/01/03 03:25:53;;;;;;;0.45;0.45;;;;;;;7.89;85.68;95295.22;4992904;28;20066;-74
2024/01/03 03:28:22;;;;;;;0.95;0.95;;;;;;;7.87;85.85;95295.47;4993465;28;20046;-74
2024/01/03 03:30:51;;;;;;;0.20;0.20;;;;;;;7.88;86.06;95304.25;4990580;28;20421;-74
2024/01/03 03:33:19;;;;;;;0.82;0.82;;;;;;;7.88;86.11;95307.69;4991422;28;20580;-74
2024/01/03 03:35:47;;;;;;;0.70;0.70;;;;;;;7.90;86.04;95304.78;4992077;28;20081;-74
2024/01/03 03:38:14;;;;;;;0.20;0.20;;;;;;;7.91;86.17;95311.72;4991397;28;20456;-74
2024/01/03 03:40:42;;;;;;;0.70;0.70;;;;;;;7.96;85.44;95312.66;4988051;28;20057;-75
2024/01/03 03:43:09;;;;;;;0.40;0.40;;;;;;;7.99;85.49;95306.84;4992464;28;20050;-74
2024/01/03 03:45:37;;;;;;;0.82;0.82;;;;;;;7.97;86.19;95313.44;4990084;28;20046;-74
2024/01/03 03:48:07;;;;;;;0.70;0.70;;;;;;;7.99;86.06;95309.50;4990795;28;20042;-74
2024/01/03 03:50:35;;;;;;;0.82;0.82;;;;;;;7.93;86.15;95296.34;4991143;28;20552;-73
2024/01/03 03:53:07;;;;;;;0.60;0.60;;;;;;;7.96;85.50;95304.69;4992209;28;20042;-73
2024/01/03 03:55:34;;;;;;;0.65;0.65;;;;;;;8.02;85.18;95306.38;4991409;28;20038;-76
2024/01/03 03:58:02;;;;;;;0.75;0.75;;;;;;;8.01;84.47;95286.16;4989719;28;20054;-74
2024/01/03 04:00:29;;;;;;;0.85;0.85;;;;;;;8.02;85.05;95302.91;4991766;28;20046;-73
2024/01/03 04:02:57;;;;;;;0.85;0.85;;;;;;;8.02;84.09;95309.03;4991528;28;20055;-74
2024/01/03 04:05:26;;;;;;;0.68;0.68;;;;;;;8.06;83.59;95298.75;4990022;28;20050;-75
2024/01/03 04:07:53;;;;;;;0.90;0.90;;;;;;;8.10;82.71;95316.63;4990945;28;20093;-74
2024/01/03 04:10:21;;;;;;;0.20;0.20;;;;;;;8.10;82.80;95305.19;4991324;28;20409;-76
2024/01/03 04:12:49;;;;;;;1.08;1.08;;;;;;;8.10;82.46;95306.00;4992099;28;20057;-75
2024/01/03 04:15:16;;;;;;;0.82;0.82;;;;;;;8.09;82.71;95316.91;4991338;28;20504;-74
2024/01/03 04:17:44;;;;;;;0.65;0.65;;;;;;;8.09;82.55;95311.56;4990047;28;20057;-74
2024/01/03 04:20:12;;;;;;;1.10;1.10;;;;;;;8.11;82.45;95312.94;4989646;28;20042;-74
2024/01/03 04:22:43;;;;;;;0.73;0.73;;;;;;;8.10;82.23;95294.56;4989219;28;20505;-74
2024/01/03 04:25:10;;;;;;;1.00;1.00;;;;;;;8.07;82.28;95317.13;4987562;28;20486;-73
2024/01/03 04:27:38;;;;;;;1.10;1.10;;;;;;;8.15;81.45;95312.47;4988769;28;20050;-73
2024/01/03 04:30:06;;;;;;;0.77;0.77;;;;;;;8.17;80.60;95316.50;4989117;28;20146;-73
2024/01/03 04:32:34;;;;;;;0.65;0.65;;;;;;;8.25;80.47;95315.31;4991985;28;20038;-74
2024/01/03 04:35:02;;;;;;;0.77;0.77;;;;;;;8.22;80.62;95321.09;4990715;28;20042;-73
2024/01/03 04:37:32;;;;;;;0.30;0.30;;;;;;;8.22;80.70;95335.19;4990493;28;20403;-74
2024/01/03 04:40:01;;;;;;;1.20;1.20;;;;;;;8.25;79.76;95317.97;4991357;28;20054;-76
2024/01/03 04:42:28;;;;;;;1.10;1.10;;;;;;;8.24;80.24;95327.81;4988851;28;20091;-74
2024/01/03 04:44:56;;;;;;;0.90;0.90;;;;;;;8.25;80.24;95340.06;4991150;28;20076;-74
2024/01/03 04:47:23;;;;;;;0.85;0.85;;;;;;;8.25;80.19;95348.03;4989726;28;20046;-74
2024/01/03 04:49:51;;;;;;;0.90;0.90;;;;;;;8.29;79.44;95337.75;4990585;28;20042;-74
2024/01/03 04:52:19;;;;;;;1.02;1.02;;;;;;;8.37;78.95;95348.84;4989116;28;20057;-73
2024/01/03 04:54:46;;;;;;;0.57;0.57;;;;;;;8.40;78.00;95345.72;4990628;28;20064;-72
2024/01/03 04:57:15;;;;;;;0.13;0.13;;;;;;;8.40;78.43;95343.06;4991198;28;20437;-74
2024/01/03 04:59:46;;;;;;;0.30;0.30;;;;;;;8.39;78.07;95348.59;4989839;28;20393;-74
2024/01/03 05:02:14;;;;;;;0.80;0.80;;;;;;;8.34;78.67;95356.47;4989328;28;20042;-75
2024/01/03 05:04:42;;;;;;;0.85;0.85;;;;;;;8.31;78.55;95363.03;4990072;28;20045;-73
2024/01/03 05:07:09;;;;;;;0.90;0.90;;;;;;;8.28;78.60;95360.84;4989431;28;20046;-73
2024/01/03 05:09:37;;;;;;;0.68;0.68;;;;;;;8.24;79.51;95358.88;4988218;28;20038;-72
2024/01/03 05:12:05;;;;;;;0.73;0.73;;;;;;;8.21;79.20;95354.84;4989119;28;20045;-72
2024/01/03 05:14:34;;;;;;;0.95;0.95;;;;;;;8.17;79.89;95352.91;4988091;28;20054;-72
2024/01/03 05:17:01;;;;;;;0.85;0.85;;;;;;;8.14;79.53;95346.19;4990544;28;20049;-71
2024/01/03 05:19:29;;;;;;;0.98;0.98;;;;;;;8.16;79.57;95349.44;4989396;28;20136;-72
2024/01/03 05:21:57;;;;;;;0.75;0.75;;;;;;;8.11;79.52;95344.00;4990725;28;20097;-72
2024/01/03 05:24:24;;;;;;;0.77;0.77;;;;;;;8.08;79.51;95347.16;4988223;28;20042;-74
2024/01/03 05:26:52;;;;;;;1.20;1.20;;;;;;;8.07;79.72;95361.47;4988835;28;20058;-72
2024/01/03 05:33:45;;;;;;;0.60;0.60;;;;;;;8.12;80.30;95358.91;4990063;28;20105;-73
2024/01/03 05:36:13;;;;;;;0.90;0.90;;;;;;;8.04;80.97;95362.75;4986255;28;20062;-73
2024/01/03 05:38:41;;;;;;;0.70;0.70;;;;;;;7.99;81.57;95353.88;4987981;28;20053;-73
2024/01/03 05:41:09;;;;;;;0.75;0.75;;;;;;;7.95;81.98;95356.19;4990304;28;20120;-76
2024/01/03 05:43:37;;;;;;;1.10;1.10;;;;;;;8.05;81.64;95366.22;4983137;28;20050;-75
2024/01/03 05:46:04;;;;;;;0.80;0.80;;;;;;;7.98;81.64;95344.28;4986173;28;20125;-72
2024/01/03 05:48:32;;;;;;;1.00;1.00;;;;;;;7.99;81.51;95356.53;4985731;28;20042;-73
2024/01/03 05:51:02;;;;;;;0.85;0.85;;;;;;;7.98;81.77;95365.53;4969592;28;20043;-73
2024/01/03 05:53:30;;;;;;;1.02;1.02;;;;;;;8.01;81.23;95386.28;4980242;28;20539;-72
2024/01/03 05:55:57;;;;;;;0.88;0.88;;;;;;;8.04;80.80;95369.91;4982389;28;20043;-72
2024/01/03 05:58:25;;;;;;;0.73;0.73;;;;;;;8.04;80.81;95375.22;4984666;28;20127;-74
2024/01/03 06:00:53;;;;;;;1.38;1.38;;;;;;;8.10;80.76;95384.88;4983749;28;20053;-72
2024/01/03 06:03:21;;;;;;;0.50;0.50;;;;;;;8.09;80.37;95360.22;4978112;28;20486;-75
2024/01/03 06:05:49;;;;;;;0.90;0.90;;;;;;;8.11;80.05;95378.53;4984836;28;20045;-74
2024/01/03 06:08:18;;;;;;;0.68;0.68;;;;;;;8.16;79.74;95365.38;4984456;28;20054;-72
2024/01/03 06:10:46;;;;;;;0.95;0.95;;;;;;;8.22;79.74;95364.44;4989434;28;20045;-73
2024/01/03 06:13:15;;;;;;;1.05;1.05;;;;;;;8.18;79.73;95381.91;4987096;28;20042;-72
2024/01/03 06:15:43;;;;;;;0.88;0.88;;;;;;;8.21;79.18;95370.78;4984323;28;20486;-73
2024/01/03 06:18:11;;;;;;;1.08;1.08;;;;;;;8.25;78.79;95400.34;4984247;28;20046;-73
2024/01/03 06:20:40;;;;;;;0.85;0.85;;;;;;;8.23;78.77;95384.66;4971986;28;20129;-74
2024/01/03 06:23:08;;;;;;;0.93;0.93;;;;;;;8.27;78.61;95372.53;4975339;28;20513;-72
2024/01/03 06:25:37;;;;;;;0.82;0.82;;;;;;;8.35;78.29;95382.00;4989699;28;20141;-73
2024/01/03 06:28:05;;;;;;;1.00;1.00;;;;;;;8.31;77.70;95379.00;4987344;28;20127;-73
2024/01/03 06:34:45;;;;;;;0.80;0.80;;;;;;;8.35;77.66;95390.78;4986039;28;20168;-72
2024/01/03 06:37:13;;;;;;;0.70;0.70;;;;;;;8.27;78.15;95403.59;4981921;28;20039;-73
2024/01/03 06:39:41;;;;;;;0.93;0.93;;;;;;;8.31;77.37;95376.34;4988408;28;20057;-73
2024/01/03 06:42:09;;;;;;;0.65;0.65;;;;;;;8.30;77.58;95406.59;4985626;28;20042;-74
2024/01/03 06:44:37;;;;;;;0.73;0.73;;;;;;;8.29;77.78;95407.63;4990779;28;20103;-72
2024/01/03 06:47:05;;;;;;;0.32;0.32;;;;;;;8.30;78.06;95419.09;4977662;28;20453;-73
2024/01/03 06:49:33;;;;;;;0.70;0.70;;;;;;;8.30;78.34;95427.06;4984211;28;20096;-74
2024/01/03 06:52:00;;;;;;;0.88;0.88;;;;;;;8.23;78.69;95421.84;4982135;28;20057;-72
2024/01/03 06:54:28;;;;;;;0.70;0.70;;;;;;;8.19;79.31;95428.69;4991577;28;20097;-72
2024/01/03 06:56:56;;;;;;;0.73;0.73;;;;;;;8.17;79.22;95438.72;4984316;28;20042;-73
2024/01/03 06:59:25;;;;;;;0.70;0.70;;;;;;;8.16;79.22;95434.47;4988375;28;20042;-72
2024/01/03 07:01:52;;;;;;;1.08;1.08;;;;;;;8.16;79.66;95444.28;4988319;28;20047;-72
2024/01/03 07:04:21;;;;;;;1.05;1.05;;;;;;;8.16;79.43;95444.28;4975701;28;20141;-72
2024/01/03 07:06:53;;;;;;;0.90;0.90;;;;;;;8.14;79.42;95441.03;4978516;28;20038;-75
2024/01/03 07:09:20;;;;;;;0.20;0.20;;;;;;;8.12;79.92;95446.56;4976298;28;20474;-73
2024/01/03 07:11:48;;;;;;;0.70;0.70;;;;;;;8.07;80.05;95447.28;4986598;28;20046;-73
2024/01/03 07:14:15;;;;;;;0.80;0.80;;;;;;;8.04;80.53;95446.94;4966023;28;20043;-73
2024/01/03 07:16:44;;;;;;;0.88;0.88;;;;;;;8.13;80.45;95453.50;4985244;28;20145;-74
2024/01/03 07:19:16;;;;;;;1.40;1.40;;;;;;;8.09;80.82;95447.88;4987649;28;20557;-73
2024/01/03 07:21:44;;;;;;;0.93;0.93;;;;;;;7.98;81.33;95451.34;4991223;28;20054;-73
2024/01/03 07:24:11;;;;;;;0.80;0.80;;;;;;;7.95;81.64;95446.47;4991882;28;20043;-72
2024/01/03 07:26:39;;;;;;;0.77;0.77;;;;;;;8.01;81.52;95458.81;4992284;28;20481;-72
2024/01/03 07:29:06;;;;;;;0.65;0.65;;;;;;;7.96;81.64;95456.06;4993888;28;20049;-72
2024/01/03 07:31:34;;;;;;;0.30;0.30;;;;;;;8.03;80.98;95466.56;4992202;28;20460;-73
2024/01/03 07:34:03;;;;;;;0.57;0.57;;;;;;;8.04;80.46;95460.22;4992051;28;20049;-72
2024/01/03 07:36:31;;;;;;;0.57;0.57;;;;;;;8.00;80.74;95445.78;4992389;28;20055;-73
2024/01/03 07:39:00;;;;;;;0.68;0.68;;;;;;;7.94;80.97;95452.03;4973056;28;20061;-73
2024/01/03 07:41:28;;;;;;;0.75;0.75;;;;;;;7.99;80.55;95457.47;4990687;28;20097;-73
2024/01/03 07:43:56;;;;;;;0.68;0.68;;;;;;;8.03;80.59;95471.88;4990843;28;20043;-73
2024/01/03 07:46:24;;;;;;;0.20;0.20;;;;;;;8.02;79.88;95465.75;4987978;28;20428;-72
2024/01/03 07:48:52;;;;;;;0.73;0.73;;;;;;;8.05;79.73;95470.63;4990004;28;20494;-74
2024/01/03 07:51:21;;;;;;;0.75;0.75;;;;;;;8.01;79.97;95469.44;4991461;28;20043;-72
2024/01/03 07:53:49;;;;;;;0.98;0.98;;;;;;;8.09;79.25;95470.97;4992407;28;20042;-72
2024/01/03 07:56:16;;;;;;;0.90;0.90;;;;;;;8.11;78.94;95474.19;4990090;28;20113;-73
2024/01/03 07:58:44;;;;;;;0.80;0.80;;;;;;;8.10;78.68;95459.28;4989876;28;20042;-77
2024/01/03 08:01:12;;;;;;;1.40;1.40;;;;;;;8.09;78.78;95450.53;4989469;28;20048;-72
2024/01/03 08:03:40;;;;;;;0.80;0.80;;;;;;;8.14;78.53;95463.09;4990836;28;20100;-72
2024/01/03 08:06:08;;;;;;;0.90;0.90;;;;;;;8.13;78.47;95458.00;4991448;28;20054;-73
2024/01/03 08:08:37;;;;;;;0.88;0.88;;;;;;;8.16;77.55;95465.53;4991213;28;20125;-72
2024/01/03 08:11:05;;;;;;;0.73;0.73;;;;;;;8.19;77.46;95451.78;4990858;28;20042;-73
2024/01/03 08:13:33;;;;;;;0.95;0.95;;;;;;;8.24;77.01;95447.38;4991115;28;20050;-73
2024/01/03 08:16:00;;;;;;;0.75;0.75;;;;;;;8.27;76.56;95419.53;4992344;28;20050;-72
2024/01/03 08:18:28;;;;;;;0.63;0.63;;;;;;;8.33;76.10;95445.19;4988798;28;20045;-72
2024/01/03 08:20:56;;;;;;;0.70;0.70;;;;;;;8.30;76.40;95440.34;4988771;28;20050;-72
2024/01/03 08:23:24;;;;;;;0.93;0.93;;;;;;;8.33;76.12;95447.84;4987208;28;20191;-72
2024/01/03 08:25:52;;;;;;;0.80;0.80;;;;;;;8.33;76.03;95456.63;4991861;28;20042;-72
2024/01/03 08:28:20;;;;;;;0.88;0.88;;;;;;;8.35;75.90;95443.13;4989579;28;20066;-72
2024/01/03 08:30:48;;;;;;;0.73;0.73;;;;;;;8.38;75.86;95459.41;4989517;28;20034;-72
2024/01/03 08:33:15;;;;;;;1.00;1.00;;;;;;;8.40;75.63;95440.59;4992973;28;20046;-73
2024/01/03 08:35:44;;;;;;;0.90;0.90;;;;;;;8.41;75.70;95447.50;4990872;28;20045;-73
2024/01/03 08:38:11;;;;;;;1.15;1.15;;;;;;;8.44;76.05;95453.16;4990328;28;20144;-73
2024/01/03 08:40:39;;;;;;;0.80;0.80;;;;;;;8.40;75.77;95433.41;4992080;28;20081;-74
2024/01/03 08:43:08;;;;;;;0.68;0.68;;;;;;;8.45;75.53;95464.59;4990303;28;20050;-73
2024/01/03 08:45:36;;;;;;;0.93;0.93;;;;;;;8.40;75.62;95462.66;4992267;28;20034;-73
2024/01/03 08:48:05;;;;;;;0.98;0.98;;;;;;;8.38;76.23;95467.41;4990179;28;20046;-73
2024/01/03 08:50:33;;;;;;;1.02;1.02;;;;;;;8.41;76.34;95461.59;4991477;28;20046;-74
2024/01/03 08:53:01;;;;;;;0.20;0.20;;;;;;;8.43;75.99;95467.50;4990309;28;20434;-71
2024/01/03 08:55:29;;;;;;;0.75;0.75;;;;;;;8.48;75.45;95474.78;4990184;28;20045;-72
2024/01/03 08:57:58;;;;;;;0.98;0.98;;;;;;;8.51;75.55;95469.00;4989283;28;20046;-71
2024/01/03 09:00:27;;;;;;;0.50;0.50;;;;;;;8.53;75.17;95456.25;4991941;28;20054;-73
2024/01/03 09:02:57;;;;;;;0.90;0.90;;;;;;;8.54;75.25;95463.19;4988191;28;20050;-75
2024/01/03 09:05:24;;;;;;;0.80;0.80;;;;;;;8.59;75.42;95462.50;4988844;28;20058;-71
2024/01/03 09:07:52;;;;;;;0.20;0.20;;;;;;;8.60;74.59;95454.28;4989766;28;20066;-74
2024/01/03 09:10:20;;;;;;;0.50;0.50;;;;;;;8.68;74.27;95461.09;4991287;28;20434;-76
2024/01/03 09:12:47;;;;;;;0.85;0.85;;;;;;;8.72;73.74;95465.69;4989437;28;20058;-71
2024/01/03 09:15:15;;;;;;;0.95;0.95;;;;;;;8.77;74.00;95449.84;4990988;28;20061;-75
2024/01/03 09:17:44;;;;;;;0.88;0.88;;;;;;;8.78;73.97;95445.34;4989053;28;20043;-74
2024/01/03 09:20:16;;;;;;;0.57;0.57;;;;;;;8.80;73.85;95444.06;4989354;28;20074;-73
2024/01/03 09:22:44;;;;;;;0.70;0.70;;;;;;;8.86;72.62;95452.94;4986486;28;20136;-75
2024/01/03 09:25:11;;;;;;;0.80;0.80;;;;;;;8.92;72.91;95448.53;4990044;28;20042;-71
2024/01/03 09:27:39;;;;;;;0.30;0.30;;;;;;;8.86;72.48;95447.59;4989879;28;20388;-74
2024/01/03 09:30:08;;;;;;;0.82;0.82;;;;;;;8.88;72.50;95448.19;4991263;28;20462;-72
2024/01/03 09:32:36;;;;;;;0.68;0.68;;;;;;;8.91;72.71;95458.38;4990658;28;20046;-71
2024/01/03 09:35:06;;;;;;;0.93;0.93;;;;;;;8.92;73.01;95459.16;4992121;28;20050;-72
2024/01/03 09:37:33;;;;;;;0.75;0.75;;;;;;;8.93;72.06;95444.84;4970786;28;20076;-72
2024/01/03 09:40:01;;;;;;;0.73;0.73;;;;;;;8.98;72.73;95451.03;4989609;28;20046;-75
2024/01/03 09:42:29;;;;;;;0.90;0.90;;;;;;;9.09;72.10;95450.19;4989852;28;20062;-74
2024/01/03 09:44:58;;;;;;;0.90;0.90;;;;;;;9.17;72.25;95455.13;4991881;28;20039;-72
2024/01/03 09:47:26;;;;;;;0.50;0.50;;;;;;;9.22;71.74;95450.94;4989764;28;20085;-72
2024/01/03 09:49:53;;;;;;;0.88;0.88;;;;;;;9.20;71.91;95457.31;4988757;28;20046;-72
2024/01/03 09:52:23;;;;;;;0.15;0.15;;;;;;;9.21;72.13;95466.09;4990148;28;20414;-72
2024/01/03 09:54:51;;;;;;;1.02;1.02;;;;;;;9.36;72.01;95457.56;4988739;28;20046;-72
2024/01/03 09:57:19;;;;;;;0.95;0.95;;;;;;;9.33;72.47;95471.38;4987372;28;20107;-72
2024/01/03 09:59:46;;;;;;;0.82;0.82;;;;;;;9.38;72.65;95480.25;4988821;28;20048;-72
2024/01/03 10:02:14;;;;;;;0.75;0.75;;;;;;;9.39;72.31;95444.59;4990660;28;20121;-72
2024/01/03 10:04:45;;;;;;;0.70;0.70;;;;;;;9.35;72.65;95466.59;4989500;28;20074;-72
2024/01/03 10:07:12;;;;;;;1.00;1.00;;;;;;;9.35;73.05;95458.59;4989369;28;20042;-72
2024/01/03 10:09:44;;;;;;;0.75;0.75;;;;;;;9.29;73.94;95465.72;4989765;28;20105;-72
2024/01/03 10:12:16;;;;;;;0.93;0.93;;;;;;;9.22;75.10;95469.56;4991225;28;20035;-72
2024/01/03 10:14:45;;;;;;;0.98;0.98;;;;;;;9.03;77.03;95463.66;4990213;28;20034;-72
2024/01/03 10:17:13;;;;;;;0.85;0.85;;;;;;;8.77;79.02;95470.31;4989321;28;20046;-72
2024/01/03 10:19:40;;;;;;;0.63;0.63;;;;;;;8.59;80.77;95452.69;4993701;28;20045;-72
2024/01/03 10:22:08;;;;;;;0.75;0.75;;;;;;;8.53;81.36;95456.25;4994910;28;20054;-71
2024/01/03 10:24:42;;;;;;;0.88;0.88;;;;;;;8.51;81.94;95462.88;4993990;28;20039;-72
2024/01/03 10:27:11;;;;;;;0.93;0.93;;;;;;;8.50;82.62;95464.72;4996156;28;20050;-75
2024/01/03 10:29:39;;;;;;;1.00;1.00;;;;;;;8.38;83.38;95453.28;4999138;28;20042;-72
2024/01/03 10:32:09;;;;;;;0.73;0.73;;;;;;;8.33;84.14;95461.97;4991365;28;20552;-72
2024/01/03 10:34:38;;;;;;;0.80;0.80;;;;;;;8.27;84.94;95456.75;4988910;28;20050;-72
2024/01/03 10:37:06;;;;;;;0.70;0.70;;;;;;;8.21;85.67;95453.16;4989681;28;20090;-76
2024/01/03 10:39:34;;;;;;;0.98;0.98;;;;;;;8.15;86.22;95447.97;4989885;28;20066;-72
2024/01/03 10:42:05;;;;;;;0.95;0.95;;;;;;;8.12;86.74;95446.56;4990506;28;20046;-72
2024/01/03 10:44:34;;;;;;;0.77;0.77;;;;;;;8.15;86.83;95446.13;4989141;28;20498;-71
2024/01/03 10:47:02;;;;;;;0.80;0.80;;;;;;;8.12;86.52;95435.94;4989238;28;20069;-72
2024/01/03 10:49:29;;;;;;;1.25;1.25;;;;;;;8.20;86.59;95440.91;4988613;28;20034;-72
2024/01/03 10:52:01;;;;;;;0.85;0.85;;;;;;;8.06;87.47;95416.44;4992206;28;20509;-73
2024/01/03 10:54:38;;;;;;;0.30;0.30;;;;;;;8.08;87.32;95411.72;4993013;28;20454;-72
2024/01/03 10:57:08;;;;;;;0.85;0.85;;;;;;;8.16;86.80;95410.53;4995347;28;20034;-71
2024/01/03 10:59:42;;;;;;;0.88;0.88;;;;;;;8.23;85.06;95423.69;4993572;28;20046;-71
2024/01/03 11:02:18;;;;;;;1.00;1.00;;;;;;;8.37;83.52;95428.56;4991993;28;20042;-71
2024/01/03 11:04:53;;;;;;;0.60;0.60;;;;;;;8.52;81.61;95403.31;4993837;28;21083;-71
2024/01/03 11:07:23;;;;;;;0.75;0.75;;;;;;;8.56;81.28;95396.50;4992247;28;20042;-71
2024/01/03 11:09:51;;;;;;;0.90;0.90;;;;;;;8.61;81.33;95404.59;4994062;28;20508;-72
2024/01/03 11:12:27;;;;;;;1.08;1.08;;;;;;;8.65;80.80;95398.53;4993206;28;20054;-74
2024/01/03 11:14:55;;;;;;;0.90;0.90;;;;;;;8.70;80.89;95398.66;4994280;28;20054;-72
2024/01/03 11:17:34;;;;;;;0.50;0.50;;;;;;;8.79;79.99;95407.88;4992737;28;20045;-75
2024/01/03 11:20:06;;;;;;;0.88;0.88;;;;;;;8.88;79.59;95399.50;4993070;28;20052;-72
2024/01/03 11:22:55;;;;;;;0.50;0.50;;;;;;;9.01;78.24;95373.41;4991210;28;20066;-72
2024/01/03 11:25:47;;;;;;;0.70;0.70;;;;;;;9.09;77.74;95386.31;4993364;28;20090;-75
2024/01/03 11:28:32;;;;;;;0.68;0.68;;;;;;;9.11;76.31;95357.63;4978858;28;20117;-72
2024/01/03 11:31:00;;;;;;;0.77;0.77;;;;;;;9.14;75.93;95383.72;4999309;28;20066;-72
2024/01/03 11:33:30;;;;;;;0.77;0.77;;;;;;;9.14;76.57;95377.59;4994938;28;20079;-73
2024/01/03 11:35:58;;;;;;;0.98;0.98;;;;;;;9.07;77.12;95374.28;4995547;28;20169;-72
2024/01/03 11:38:38;;;;;;;0.80;0.80;;;;;;;8.96;78.45;95383.94;4994222;28;20109;-73
2024/01/03 11:41:06;;;;;;;1.20;1.20;;;;;;;8.98;78.85;95375.75;4996271;28;20046;-72
2024/01/03 11:43:35;;;;;;;0.75;0.75;;;;;;;8.94;79.45;95380.72;4993787;28;20046;-73
2024/01/03 11:46:07;;;;;;;1.00;1.00;;;;;;;8.95;78.24;95369.03;4993783;28;20042;-73
2024/01/03 11:48:35;;;;;;;0.88;0.88;;;;;;;9.08;78.05;95360.75;4991333;28;20552;-72
2024/01/03 11:51:04;;;;;;;0.88;0.88;;;;;;;9.18;76.03;95365.44;4993025;28;20054;-72
2024/01/03 11:53:32;;;;;;;0.75;0.75;;;;;;;9.25;76.27;95358.09;4993165;28;20057;-73
2024/01/03 11:56:04;;;;;;;1.25;1.25;;;;;;;9.37;75.32;95350.84;4993435;28;20097;-74